createdAt,value
2023-02-16T00:01:46.921Z,11.13
2023-02-16T00:04:31.518Z,7.30
2023-02-16T00:07:02.022Z,15.00
2023-02-16T00:09:40.597Z,9.70
2023-02-16T00:12:38.530Z,12.70
2023-02-16T00:15:31.612Z,14.70
2023-02-16T00:18:12.989Z,6.23
2023-02-16T00:20:46.784Z,22.65
2023-02-16T00:23:18.180Z,8.83
2023-02-16T00:25:52.904Z,6.68
2023-02-16T00:28:38.406Z,14.87
2023-02-16T00:31:07.910Z,26.23
2023-02-16T00:33:45.974Z,15.23
2023-02-16T00:36:22.131Z,13.93
2023-02-16T00:38:51.602Z,9.40
2023-02-16T00:41:47.631Z,26.57
2023-02-16T00:44:19.039Z,7.37
2023-02-16T00:49:36.719Z,29.27
2023-02-16T00:52:25.631Z,12.60
2023-02-16T00:54:53.927Z,16.40
2023-02-16T00:57:27.356Z,14.27
2023-02-16T01:00:19.234Z,15.23
2023-02-16T01:03:01.759Z,8.77
2023-02-16T01:05:30.201Z,9.07
2023-02-16T01:08:21.193Z,14.35
2023-02-16T01:11:12.676Z,13.17
2023-02-16T01:13:49.748Z,10.40
2023-02-16T01:16:43.347Z,10.97
2023-02-16T01:19:24.047Z,11.23
2023-02-16T01:21:57.106Z,30.00
2023-02-16T01:24:30.644Z,17.13
2023-02-16T01:27:01.341Z,14.03
2023-02-16T01:29:38.388Z,12.67
2023-02-16T01:32:13.748Z,21.50
2023-02-16T01:34:59.420Z,24.93
2023-02-16T01:37:30.626Z,20.63
2023-02-16T01:40:01.986Z,20.17
2023-02-16T01:42:51.264Z,22.95
2023-02-16T01:45:39.579Z,23.10
2023-02-16T01:48:20.165Z,35.53
2023-02-16T01:50:58.054Z,20.83
2023-02-16T01:53:44.053Z,15.63
2023-02-16T01:56:45.473Z,20.60
2023-02-16T01:59:38.732Z,32.87
2023-02-16T02:02:15.869Z,13.10
2023-02-16T02:05:16.798Z,19.43
2023-02-16T02:08:06.157Z,20.87
2023-02-16T02:10:34.918Z,19.63
2023-02-16T02:13:18.579Z,14.70
2023-02-16T02:15:49.944Z,38.27
2023-02-16T02:18:27.766Z,18.37
2023-02-16T02:21:52.769Z,16.17
2023-02-16T02:25:12.145Z,23.30
2023-02-16T02:27:55.562Z,20.00
2023-02-16T02:31:06.347Z,39.30
2023-02-16T02:34:02.966Z,24.88
2023-02-16T02:36:53.470Z,14.50
2023-02-16T02:40:21.930Z,28.08
2023-02-16T02:43:08.990Z,14.70
2023-02-16T02:45:54.205Z,27.90
2023-02-16T02:48:21.981Z,18.63
2023-02-16T02:51:30.310Z,19.40
2023-02-16T02:54:43.666Z,27.53
2023-02-16T02:57:51.589Z,15.83
2023-02-16T03:00:52.708Z,16.90
2023-02-16T03:03:52.270Z,22.30
2023-02-16T03:06:31.854Z,16.13
2023-02-16T03:09:21.851Z,22.73
2023-02-16T03:12:17.004Z,13.43
2023-02-16T03:14:59.207Z,15.93
2023-02-16T03:17:57.274Z,16.53
2023-02-16T03:20:50.094Z,19.63
2023-02-16T03:23:37.257Z,14.30
2023-02-16T03:26:24.688Z,18.90
2023-02-16T03:29:12.578Z,12.20
2023-02-16T03:34:31.345Z,14.73
2023-02-16T03:37:01.777Z,15.70
2023-02-16T03:39:56.246Z,14.17
2023-02-16T03:42:28.019Z,13.43
2023-02-16T03:45:04.484Z,28.00
2023-02-16T03:47:36.712Z,17.50
2023-02-16T03:50:09.690Z,22.63
2023-02-16T03:52:43.622Z,11.20
2023-02-16T03:55:17.496Z,12.87
2023-02-16T03:57:54.520Z,4.33
2023-02-16T04:00:35.308Z,12.90
2023-02-16T04:03:06.525Z,18.63
2023-02-16T04:05:50.755Z,11.93
2023-02-16T04:08:23.595Z,9.07
2023-02-16T04:11:00.360Z,27.70
2023-02-16T04:13:29.978Z,16.97
2023-02-16T04:16:01.637Z,16.33
2023-02-16T04:18:32.077Z,8.88
2023-02-16T04:21:09.885Z,14.47
2023-02-16T04:23:51.076Z,18.17
2023-02-16T04:26:24.957Z,13.95
2023-02-16T04:28:55.478Z,26.83
2023-02-16T04:31:27.100Z,11.20
2023-02-16T04:33:57.875Z,6.72
2023-02-16T04:36:31.751Z,20.80
2023-02-16T04:39:05.061Z,16.47
2023-02-16T04:41:34.922Z,14.03
2023-02-16T04:44:07.867Z,23.33
2023-02-16T04:46:41.557Z,16.60
2023-02-16T04:49:11.972Z,7.03
2023-02-16T04:51:45.780Z,11.53
2023-02-16T04:54:16.273Z,14.87
2023-02-16T04:57:05.120Z,27.03
2023-02-16T04:59:44.717Z,13.02
2023-02-16T05:02:16.102Z,14.43
2023-02-16T05:04:46.478Z,12.20
2023-02-16T05:07:19.772Z,24.17
2023-02-16T05:09:59.060Z,18.20
2023-02-16T05:12:48.477Z,15.03
2023-02-16T05:15:19.537Z,11.93
2023-02-16T05:17:55.226Z,24.20
2023-02-16T05:20:51.179Z,9.53
2023-02-16T05:23:20.904Z,19.73
2023-02-16T05:28:45.636Z,9.80
2023-02-16T05:34:06.375Z,17.13
2023-02-16T05:36:37.694Z,5.47
2023-02-16T05:39:06.706Z,23.17
2023-02-16T05:41:38.438Z,9.77
2023-02-16T05:44:11.422Z,11.93
2023-02-16T05:46:44.368Z,23.87
2023-02-16T05:49:16.054Z,11.60
2023-02-16T05:51:45.785Z,16.00
2023-02-16T05:54:23.642Z,15.93
2023-02-16T05:56:54.029Z,8.77
2023-02-16T05:59:25.032Z,19.03
2023-02-16T06:04:25.474Z,11.57
2023-02-16T06:09:44.005Z,12.10
2023-02-16T06:12:16.302Z,9.70
2023-02-16T06:14:52.529Z,10.33
2023-02-16T06:17:23.685Z,23.03
2023-02-16T06:22:22.582Z,23.93
2023-02-16T06:24:53.675Z,13.10
2023-02-16T06:27:22.447Z,15.38
2023-02-16T06:30:05.349Z,15.20
2023-02-16T06:32:35.853Z,14.10
2023-02-16T06:35:06.410Z,18.50
2023-02-16T06:37:40.056Z,14.53
2023-02-16T06:40:13.872Z,16.87
2023-02-16T06:42:53.749Z,11.07
2023-02-16T06:45:31.746Z,7.43
2023-02-16T06:48:00.104Z,11.43
2023-02-16T06:50:37.662Z,8.80
2023-02-16T06:53:12.234Z,11.20
2023-02-16T06:58:29.692Z,13.07
2023-02-16T07:01:04.069Z,15.57
2023-02-16T07:03:35.720Z,15.37
2023-02-16T07:06:08.885Z,17.10
2023-02-16T07:08:42.500Z,14.37
2023-02-16T07:11:27.171Z,12.87
2023-02-16T07:13:57.537Z,13.60
2023-02-16T07:16:28.961Z,12.70
2023-02-16T07:18:59.401Z,12.95
2023-02-16T07:24:13.985Z,15.33
2023-02-16T07:26:43.538Z,32.50
2023-02-16T07:29:23.104Z,18.80
2023-02-16T07:32:06.109Z,13.50
2023-02-16T07:34:35.184Z,17.50
2023-02-16T07:37:08.880Z,17.37
2023-02-16T07:39:39.666Z,13.90
2023-02-16T07:42:18.363Z,9.43
2023-02-16T07:44:56.170Z,15.73
2023-02-16T07:47:28.349Z,8.37
2023-02-16T07:49:58.989Z,27.30
2023-02-16T07:52:31.340Z,22.67
2023-02-16T07:55:04.908Z,20.67
2023-02-16T07:57:35.491Z,22.50
2023-02-16T08:00:07.939Z,18.92
2023-02-16T08:02:44.710Z,12.10
2023-02-16T08:05:14.703Z,27.65
2023-02-16T08:10:35.286Z,14.97
2023-02-16T08:13:13.974Z,15.87
2023-02-16T08:15:47.983Z,25.83
2023-02-16T08:18:19.155Z,15.90
2023-02-16T08:21:04.300Z,26.25
2023-02-16T08:23:45.194Z,26.73
2023-02-16T08:26:22.960Z,21.87
2023-02-16T08:29:01.317Z,27.83
2023-02-16T08:31:34.990Z,9.43
2023-02-16T08:34:08.695Z,25.97
2023-02-16T08:36:44.429Z,29.83
2023-02-16T08:39:23.183Z,14.73
2023-02-16T08:41:56.579Z,25.70
2023-02-16T08:44:30.191Z,18.97
2023-02-16T08:47:03.951Z,19.33
2023-02-16T08:49:34.584Z,12.23
2023-02-16T08:52:08.315Z,23.90
2023-02-16T08:54:38.584Z,16.27
2023-02-16T08:57:10.241Z,19.27
2023-02-16T08:59:49.938Z,15.57
2023-02-16T09:02:26.859Z,18.17
2023-02-16T09:05:08.994Z,18.60
2023-02-16T09:10:19.673Z,24.33
2023-02-16T09:12:52.436Z,20.53
2023-02-16T09:15:22.783Z,15.67
2023-02-16T09:17:58.821Z,20.17
2023-02-16T09:20:31.949Z,23.33
2023-02-16T09:23:04.041Z,25.87
2023-02-16T09:25:35.926Z,25.53
2023-02-16T09:33:34.135Z,15.97
2023-02-16T09:36:12.351Z,21.63
2023-02-16T09:38:50.270Z,14.27
2023-02-16T09:42:18.439Z,14.33
2023-02-16T09:45:21.714Z,12.57
2023-02-16T09:47:55.138Z,21.30
2023-02-16T09:50:53.869Z,26.53
2023-02-16T09:53:41.768Z,12.67
2023-02-16T09:56:36.355Z,16.80
2023-02-16T09:59:14.017Z,23.87
2023-02-16T10:02:02.633Z,20.50
2023-02-16T10:05:32.524Z,28.37
2023-02-16T10:08:13.077Z,39.17
2023-02-16T10:11:30.171Z,29.03
2023-02-16T10:14:06.503Z,27.27
2023-02-16T10:16:57.934Z,36.77
2023-02-16T10:19:42.093Z,18.25
2023-02-16T10:22:21.482Z,21.67
2023-02-16T10:25:04.222Z,40.97
2023-02-16T10:27:51.862Z,16.23
2023-02-16T10:30:32.813Z,17.90
2023-02-16T10:33:47.999Z,21.20
2023-02-16T10:36:41.981Z,11.57
2023-02-16T10:39:52.987Z,21.33
2023-02-16T10:42:59.161Z,15.03
2023-02-16T10:46:18.449Z,18.40
2023-02-16T10:48:57.676Z,18.47
2023-02-16T10:51:36.333Z,21.10
2023-02-16T10:54:34.083Z,21.90
2023-02-16T10:57:08.047Z,21.67
2023-02-16T10:59:46.517Z,24.00
2023-02-16T11:02:47.622Z,19.23
2023-02-16T11:05:34.155Z,24.20
2023-02-16T11:08:11.544Z,23.73
2023-02-16T11:13:49.034Z,28.33
2023-02-16T11:19:23.824Z,18.43
2023-02-16T11:21:56.145Z,22.17
2023-02-16T11:24:44.132Z,19.60
2023-02-16T11:27:29.886Z,21.97
2023-02-16T11:30:23.776Z,26.93
2023-02-16T11:32:55.361Z,18.30
2023-02-16T11:35:27.231Z,25.20
2023-02-16T11:40:43.576Z,25.37
2023-02-16T11:43:23.249Z,31.90
2023-02-16T11:46:25.494Z,27.77
2023-02-16T11:48:56.873Z,36.17
2023-02-16T11:51:41.240Z,26.63
2023-02-16T11:54:19.103Z,25.63
2023-02-16T11:57:20.820Z,38.53
2023-02-16T12:03:26.149Z,33.83
2023-02-16T12:06:33.369Z,24.57
2023-02-16T12:09:25.609Z,24.27
2023-02-16T12:12:20.052Z,29.30
2023-02-16T12:15:18.969Z,34.73
2023-02-16T12:18:32.973Z,34.97
2023-02-16T12:21:48.811Z,26.53
2023-02-16T12:24:48.681Z,25.43
2023-02-16T12:27:41.013Z,24.10
2023-02-16T12:30:33.981Z,19.93
2023-02-16T12:33:33.075Z,28.97
2023-02-16T12:36:09.410Z,29.47
2023-02-16T12:38:45.364Z,29.50
2023-02-16T12:44:57.600Z,16.23
2023-02-16T12:48:06.305Z,26.80
2023-02-16T12:50:47.270Z,21.10
2023-02-16T12:53:44.855Z,18.53
2023-02-16T12:56:24.073Z,12.67
2023-02-16T12:59:12.402Z,15.13
2023-02-16T13:01:40.993Z,15.47
2023-02-16T13:04:54.233Z,18.77
2023-02-16T13:08:02.870Z,18.40
2023-02-16T13:10:54.058Z,22.13
2023-02-16T13:13:27.312Z,14.95
2023-02-16T13:16:29.590Z,14.23
2023-02-16T13:19:03.230Z,11.80
2023-02-16T13:22:15.398Z,12.77
2023-02-16T13:25:45.290Z,18.45
2023-02-16T13:28:58.148Z,10.83
2023-02-16T13:32:21.169Z,17.00
2023-02-16T13:38:38.050Z,20.90
2023-02-16T13:41:30.950Z,17.40
2023-02-16T13:44:24.243Z,20.13
2023-02-16T13:47:00.021Z,15.80
2023-02-16T13:52:49.876Z,17.30
2023-02-16T13:55:40.665Z,15.85
2023-02-16T13:58:14.130Z,16.03
2023-02-16T14:00:59.611Z,14.30
2023-02-16T14:03:44.184Z,18.60
2023-02-16T14:06:37.376Z,9.27
2023-02-16T14:09:36.315Z,18.80
2023-02-16T14:12:34.147Z,16.97
2023-02-16T14:15:11.612Z,17.03
2023-02-16T14:17:44.500Z,11.33
2023-02-16T14:20:24.119Z,37.07
2023-02-16T14:23:13.124Z,21.33
2023-02-16T14:25:50.305Z,7.10
2023-02-16T14:28:41.289Z,12.60
2023-02-16T14:31:25.951Z,15.18
2023-02-16T14:37:59.495Z,18.40
2023-02-16T14:40:42.021Z,15.77
2023-02-16T14:44:09.782Z,19.27
2023-02-16T14:47:23.257Z,12.17
2023-02-16T14:50:28.239Z,12.50
2023-02-16T14:53:59.584Z,16.77
2023-02-16T14:56:49.140Z,14.47
2023-02-16T14:59:44.465Z,15.53
2023-02-16T15:03:11.341Z,15.73
2023-02-16T15:05:50.649Z,17.77
2023-02-16T15:08:23.908Z,23.47
2023-02-16T15:11:09.210Z,16.57
2023-02-16T15:13:48.208Z,21.77
2023-02-16T15:16:25.825Z,15.30
2023-02-16T15:18:59.408Z,17.00
2023-02-16T15:21:40.843Z,26.47
2023-02-16T15:24:23.072Z,12.60
2023-02-16T15:27:01.614Z,9.35
2023-02-16T15:29:33.607Z,17.73
2023-02-16T15:32:09.305Z,14.93
2023-02-16T15:34:41.650Z,14.10
2023-02-16T15:37:42.165Z,15.73
2023-02-16T15:40:30.228Z,11.23
2023-02-16T15:43:23.874Z,9.77
2023-02-16T15:45:56.650Z,13.03
2023-02-16T15:48:42.647Z,13.63
2023-02-16T15:51:42.094Z,12.13
2023-02-16T15:54:49.825Z,16.60
2023-02-16T15:57:34.817Z,12.07
2023-02-16T16:00:07.168Z,9.00
2023-02-16T16:03:16.011Z,28.27
2023-02-16T16:06:04.997Z,16.53
2023-02-16T16:08:33.965Z,18.13
2023-02-16T16:11:07.046Z,30.13
2023-02-16T16:13:41.345Z,29.27
2023-02-16T16:16:15.036Z,23.07
2023-02-16T16:18:54.862Z,29.13
2023-02-16T16:21:34.304Z,31.40
2023-02-16T16:24:09.071Z,19.63
2023-02-16T16:26:59.565Z,17.53
2023-02-16T16:29:52.048Z,16.37
2023-02-16T16:32:33.670Z,20.00
2023-02-16T16:35:03.714Z,16.20
2023-02-16T16:37:42.846Z,26.27
2023-02-16T16:40:29.180Z,18.37
2023-02-16T16:43:20.822Z,17.00
2023-02-16T16:45:55.511Z,23.02
2023-02-16T16:48:37.325Z,24.50
2023-02-16T16:54:42.940Z,20.27
2023-02-16T16:57:24.102Z,18.90
2023-02-16T16:59:55.240Z,23.88
2023-02-16T17:02:26.409Z,18.63
2023-02-16T17:04:55.200Z,19.77
2023-02-16T17:07:25.084Z,20.20
2023-02-16T17:09:56.276Z,17.47
2023-02-16T17:12:39.566Z,25.98
2023-02-16T17:15:10.134Z,17.67
2023-02-16T17:17:44.061Z,22.23
2023-02-16T17:20:20.718Z,23.53
2023-02-16T17:22:49.619Z,18.10
2023-02-16T17:28:07.674Z,17.80
2023-02-16T17:30:36.376Z,19.03
2023-02-16T17:33:20.273Z,22.67
2023-02-16T17:35:56.983Z,21.43
2023-02-16T17:38:37.975Z,28.57
2023-02-16T17:41:09.065Z,19.73
2023-02-16T17:43:40.279Z,26.83
2023-02-16T17:46:11.903Z,23.90
2023-02-16T17:48:42.853Z,26.52
2023-02-16T17:51:22.456Z,18.50
2023-02-16T17:53:52.281Z,17.37
2023-02-16T17:56:35.801Z,21.07
2023-02-16T17:59:07.341Z,17.70
2023-02-16T18:01:45.905Z,15.70
2023-02-16T18:04:33.580Z,12.15
2023-02-16T18:07:08.741Z,15.93
2023-02-16T18:09:42.389Z,13.60
2023-02-16T18:12:18.868Z,18.60
2023-02-16T18:14:52.596Z,17.43
2023-02-16T18:17:25.508Z,16.67
2023-02-16T18:19:56.791Z,20.80
2023-02-16T18:22:33.161Z,23.07
2023-02-16T18:27:56.798Z,18.00
2023-02-16T18:30:30.566Z,22.20
2023-02-16T18:33:03.077Z,18.37
2023-02-16T18:38:25.978Z,19.33
2023-02-16T18:40:57.994Z,17.03
2023-02-16T18:43:31.876Z,31.83
2023-02-16T18:46:03.218Z,44.53
2023-02-16T18:48:36.149Z,166.20
2023-02-16T18:51:36.353Z,172.33
2023-02-16T18:54:05.676Z,88.40
2023-02-16T18:56:39.042Z,79.43
2023-02-16T18:59:08.500Z,184.23
2023-02-16T19:01:38.792Z,101.13
2023-02-16T19:04:15.428Z,295.33
2023-02-16T19:06:53.398Z,307.53
2023-02-16T19:09:23.127Z,156.10
2023-02-16T19:11:51.170Z,74.97
2023-02-16T19:14:29.807Z,53.47
2023-02-16T19:17:01.250Z,39.70
2023-02-16T19:19:34.203Z,35.45
2023-02-16T19:22:03.285Z,13.00
2023-02-16T19:24:42.419Z,17.90
2023-02-16T19:27:12.271Z,15.07
2023-02-16T19:29:46.998Z,11.43
2023-02-16T19:35:00.280Z,16.40
2023-02-16T19:40:25.207Z,11.37
2023-02-16T19:43:10.692Z,9.33
2023-02-16T19:45:45.462Z,15.80
2023-02-16T19:48:13.794Z,4.30
2023-02-16T19:50:44.903Z,12.47
2023-02-16T19:53:19.222Z,17.05
2023-02-16T19:55:49.337Z,21.60
2023-02-16T19:58:20.217Z,13.70
2023-02-16T20:00:51.454Z,11.53
2023-02-16T20:03:20.339Z,8.57
2023-02-16T20:05:50.879Z,19.10
2023-02-16T20:08:21.969Z,23.37
2023-02-16T20:10:49.644Z,16.75
2023-02-16T20:13:20.005Z,9.90
2023-02-16T20:15:52.812Z,15.47
2023-02-16T20:18:24.132Z,10.20
2023-02-16T20:21:27.246Z,8.88
2023-02-16T20:24:01.285Z,12.37
2023-02-16T20:26:38.332Z,19.83
2023-02-16T20:29:11.315Z,12.97
2023-02-16T20:34:38.285Z,8.13
2023-02-16T20:37:11.349Z,10.27
2023-02-16T20:39:54.320Z,15.13
2023-02-16T20:42:34.936Z,24.60
2023-02-16T20:45:05.967Z,13.37
2023-02-16T20:47:37.127Z,19.58
2023-02-16T20:50:13.807Z,16.63
2023-02-16T20:52:59.064Z,17.73
2023-02-16T20:55:33.074Z,27.47
2023-02-16T20:58:10.119Z,16.87
2023-02-16T21:03:23.860Z,11.40
2023-02-16T21:06:07.799Z,11.15
2023-02-16T21:08:43.528Z,26.07
2023-02-16T21:11:14.622Z,15.77
2023-02-16T21:14:00.363Z,30.63
2023-02-16T21:16:32.396Z,23.97
2023-02-16T21:19:05.572Z,16.75
2023-02-16T21:21:43.536Z,14.60
2023-02-16T21:24:19.468Z,18.10
2023-02-16T21:26:55.709Z,14.90
2023-02-16T21:29:30.378Z,9.17
2023-02-16T21:31:58.809Z,5.77
2023-02-16T21:34:32.255Z,13.93
2023-02-16T21:37:03.197Z,9.77
2023-02-16T21:39:54.001Z,18.48
2023-02-16T21:42:25.157Z,20.17
2023-02-16T21:45:20.256Z,9.80
2023-02-16T21:48:08.492Z,15.33
2023-02-16T21:50:40.554Z,19.87
2023-02-16T21:53:19.950Z,11.80
2023-02-16T21:56:12.536Z,10.73
2023-02-16T21:58:41.380Z,26.37
2023-02-16T22:01:18.913Z,13.43
2023-02-16T22:03:56.430Z,11.57
2023-02-16T22:06:49.283Z,13.27
2023-02-16T22:09:27.607Z,19.50
2023-02-16T22:12:03.754Z,12.27
2023-02-16T22:14:34.479Z,15.80
2023-02-16T22:17:15.326Z,22.13
2023-02-16T22:19:46.137Z,13.00
2023-02-16T22:22:22.693Z,19.53
2023-02-16T22:24:53.230Z,13.77
2023-02-16T22:27:22.256Z,15.43
2023-02-16T22:29:59.814Z,15.53
2023-02-16T22:32:34.913Z,16.10
2023-02-16T22:35:12.089Z,20.37
2023-02-16T22:40:28.839Z,15.77
2023-02-16T22:45:46.201Z,21.10
2023-02-16T22:48:24.992Z,23.70
2023-02-16T22:51:03.749Z,11.70
2023-02-16T22:53:37.008Z,19.93
2023-02-16T22:56:11.562Z,15.10
2023-02-16T22:58:48.605Z,5.77
2023-02-16T23:01:22.161Z,15.93
2023-02-16T23:04:00.550Z,10.73
2023-02-16T23:06:37.171Z,11.27
2023-02-16T23:09:10.591Z,22.63
2023-02-16T23:11:44.017Z,14.07
2023-02-16T23:14:17.544Z,17.70
2023-02-16T23:16:48.897Z,13.00
2023-02-16T23:19:31.610Z,14.27
2023-02-16T23:22:06.250Z,13.07
2023-02-16T23:24:43.734Z,10.20
2023-02-16T23:27:12.063Z,18.90
2023-02-16T23:29:48.392Z,19.40
2023-02-16T23:32:27.614Z,18.47
2023-02-16T23:35:03.845Z,12.60
2023-02-16T23:37:39.706Z,14.37
2023-02-16T23:40:18.515Z,17.30
2023-02-16T23:42:52.463Z,13.00
2023-02-16T23:45:25.470Z,15.07
2023-02-16T23:47:57.011Z,14.90
2023-02-16T23:50:28.470Z,14.57
2023-02-16T23:53:01.575Z,25.90
2023-02-16T23:58:21.996Z,13.77
